sensor_id;sensor_type;location;lat;lon;timestamp;P1;durP1;ratioP1;P2;durP2;ratioP2
17987;SDS011;9119;50.932;5.342;2022-12-18T00:02:03;94.17;;;31.27;;
17987;SDS011;9119;50.932;5.342;2022-12-18T00:04:29;100.60;;;31.50;;
17987;SDS011;9119;50.932;5.342;2022-12-18T00:06:55;124.67;;;34.80;;
17987;SDS011;9119;50.932;5.342;2022-12-18T00:09:20;98.03;;;30.50;;
17987;SDS011;9119;50.932;5.342;2022-12-18T00:11:46;119.67;;;42.63;;
17987;SDS011;9119;50.932;5.342;2022-12-18T00:14:12;103.27;;;32.90;;
17987;SDS011;9119;50.932;5.342;2022-12-18T00:16:38;123.17;;;39.90;;
17987;SDS011;9119;50.932;5.342;2022-12-18T00:19:05;120.03;;;36.90;;
17987;SDS011;9119;50.932;5.342;2022-12-18T00:21:32;97.13;;;32.17;;
17987;SDS011;9119;50.932;5.342;2022-12-18T00:23:59;103.80;;;32.23;;
17987;SDS011;9119;50.932;5.342;2022-12-18T00:26:27;103.77;;;33.10;;
17987;SDS011;9119;50.932;5.342;2022-12-18T00:28:58;97.70;;;30.93;;
17987;SDS011;9119;50.932;5.342;2022-12-18T00:31:44;106.57;;;35.30;;
17987;SDS011;9119;50.932;5.342;2022-12-18T00:34:11;97.50;;;30.93;;
17987;SDS011;9119;50.932;5.342;2022-12-18T00:36:37;130.17;;;43.13;;
17987;SDS011;9119;50.932;5.342;2022-12-18T00:39:04;93.60;;;29.93;;
17987;SDS011;9119;50.932;5.342;2022-12-18T00:41:30;99.40;;;32.20;;
17987;SDS011;9119;50.932;5.342;2022-12-18T00:44:15;79.87;;;29.67;;
17987;SDS011;9119;50.932;5.342;2022-12-18T00:46:42;94.50;;;31.90;;
17987;SDS011;9119;50.932;5.342;2022-12-18T00:49:08;102.33;;;32.53;;
17987;SDS011;9119;50.932;5.342;2022-12-18T00:51:35;93.87;;;31.37;;
17987;SDS011;9119;50.932;5.342;2022-12-18T00:54:00;92.60;;;30.93;;
17987;SDS011;9119;50.932;5.342;2022-12-18T00:56:26;85.53;;;30.63;;
17987;SDS011;9119;50.932;5.342;2022-12-18T00:58:52;82.20;;;30.03;;
17987;SDS011;9119;50.932;5.342;2022-12-18T01:01:17;88.20;;;29.80;;
17987;SDS011;9119;50.932;5.342;2022-12-18T01:03:43;90.87;;;31.27;;
17987;SDS011;9119;50.932;5.342;2022-12-18T01:06:12;102.43;;;36.33;;
17987;SDS011;9119;50.932;5.342;2022-12-18T01:08:38;101.93;;;34.03;;
17987;SDS011;9119;50.932;5.342;2022-12-18T01:11:08;84.40;;;29.00;;
17987;SDS011;9119;50.932;5.342;2022-12-18T01:13:35;84.63;;;29.27;;
17987;SDS011;9119;50.932;5.342;2022-12-18T01:16:00;93.67;;;31.27;;
17987;SDS011;9119;50.932;5.342;2022-12-18T01:18:26;94.13;;;29.70;;
17987;SDS011;9119;50.932;5.342;2022-12-18T01:20:52;94.50;;;31.33;;
17987;SDS011;9119;50.932;5.342;2022-12-18T01:23:17;91.00;;;31.10;;
17987;SDS011;9119;50.932;5.342;2022-12-18T01:25:43;85.37;;;31.23;;
17987;SDS011;9119;50.932;5.342;2022-12-18T01:28:09;88.00;;;28.87;;
17987;SDS011;9119;50.932;5.342;2022-12-18T01:30:35;80.57;;;29.43;;
17987;SDS011;9119;50.932;5.342;2022-12-18T01:33:00;94.70;;;30.33;;
17987;SDS011;9119;50.932;5.342;2022-12-18T01:35:26;93.97;;;29.90;;
17987;SDS011;9119;50.932;5.342;2022-12-18T01:37:54;93.77;;;29.83;;
17987;SDS011;9119;50.932;5.342;2022-12-18T01:40:21;86.83;;;29.77;;
17987;SDS011;9119;50.932;5.342;2022-12-18T01:42:52;83.97;;;28.90;;
17987;SDS011;9119;50.932;5.342;2022-12-18T01:45:22;79.43;;;27.40;;
17987;SDS011;9119;50.932;5.342;2022-12-18T01:47:55;80.27;;;28.83;;
17987;SDS011;9119;50.932;5.342;2022-12-18T01:50:44;76.63;;;27.83;;
17987;SDS011;9119;50.932;5.342;2022-12-18T01:53:10;82.60;;;28.03;;
17987;SDS011;9119;50.932;5.342;2022-12-18T01:55:37;78.93;;;28.67;;
17987;SDS011;9119;50.932;5.342;2022-12-18T01:58:17;87.43;;;29.77;;
17987;SDS011;9119;50.932;5.342;2022-12-18T02:00:45;72.13;;;27.27;;
17987;SDS011;9119;50.932;5.342;2022-12-18T02:03:11;92.73;;;30.07;;
17987;SDS011;9119;50.932;5.342;2022-12-18T02:05:44;103.03;;;34.87;;
17987;SDS011;9119;50.932;5.342;2022-12-18T02:08:36;76.67;;;27.73;;
17987;SDS011;9119;50.932;5.342;2022-12-18T02:14:15;93.57;;;27.50;;
17987;SDS011;9119;50.932;5.342;2022-12-18T02:16:51;78.80;;;27.83;;
17987;SDS011;9119;50.932;5.342;2022-12-18T02:27:37;80.43;;;27.67;;
17987;SDS011;9119;50.932;5.342;2022-12-18T02:30:04;78.30;;;28.67;;
17987;SDS011;9119;50.932;5.342;2022-12-18T02:32:33;86.33;;;31.07;;
17987;SDS011;9119;50.932;5.342;2022-12-18T02:35:03;92.77;;;31.43;;
17987;SDS011;9119;50.932;5.342;2022-12-18T02:37:31;80.50;;;28.77;;
17987;SDS011;9119;50.932;5.342;2022-12-18T02:39:59;96.77;;;33.00;;
17987;SDS011;9119;50.932;5.342;2022-12-18T02:42:27;81.73;;;28.90;;
17987;SDS011;9119;50.932;5.342;2022-12-18T02:44:53;97.13;;;31.30;;
17987;SDS011;9119;50.932;5.342;2022-12-18T02:47:21;81.03;;;26.70;;
17987;SDS011;9119;50.932;5.342;2022-12-18T02:57:58;67.97;;;23.77;;
17987;SDS011;9119;50.932;5.342;2022-12-18T03:00:33;62.63;;;23.03;;
17987;SDS011;9119;50.932;5.342;2022-12-18T03:03:09;69.03;;;23.70;;
17987;SDS011;9119;50.932;5.342;2022-12-18T03:08:20;67.23;;;23.33;;
17987;SDS011;9119;50.932;5.342;2022-12-18T03:10:51;58.33;;;20.10;;
17987;SDS011;9119;50.932;5.342;2022-12-18T03:14:05;60.43;;;21.17;;
17987;SDS011;9119;50.932;5.342;2022-12-18T03:16:32;63.90;;;20.87;;
17987;SDS011;9119;50.932;5.342;2022-12-18T03:19:01;52.90;;;19.77;;
17987;SDS011;9119;50.932;5.342;2022-12-18T03:21:42;57.47;;;19.47;;
17987;SDS011;9119;50.932;5.342;2022-12-18T03:24:10;90.47;;;29.23;;
17987;SDS011;9119;50.932;5.342;2022-12-18T03:26:37;57.43;;;19.87;;
17987;SDS011;9119;50.932;5.342;2022-12-18T03:29:07;55.43;;;20.70;;
17987;SDS011;9119;50.932;5.342;2022-12-18T03:31:40;60.97;;;20.77;;
17987;SDS011;9119;50.932;5.342;2022-12-18T03:34:12;62.27;;;21.50;;
17987;SDS011;9119;50.932;5.342;2022-12-18T03:36:42;72.57;;;21.87;;
17987;SDS011;9119;50.932;5.342;2022-12-18T03:39:08;64.40;;;22.43;;
17987;SDS011;9119;50.932;5.342;2022-12-18T03:41:38;63.00;;;20.80;;
17987;SDS011;9119;50.932;5.342;2022-12-18T03:44:14;63.57;;;20.83;;
17987;SDS011;9119;50.932;5.342;2022-12-18T03:52:04;65.07;;;20.60;;
17987;SDS011;9119;50.932;5.342;2022-12-18T03:54:34;63.00;;;22.03;;
17987;SDS011;9119;50.932;5.342;2022-12-18T03:57:04;52.43;;;19.83;;
17987;SDS011;9119;50.932;5.342;2022-12-18T03:59:34;57.93;;;19.47;;
17987;SDS011;9119;50.932;5.342;2022-12-18T04:02:02;56.07;;;19.00;;
17987;SDS011;9119;50.932;5.342;2022-12-18T04:04:30;51.53;;;18.63;;
17987;SDS011;9119;50.932;5.342;2022-12-18T04:06:57;50.50;;;18.33;;
17987;SDS011;9119;50.932;5.342;2022-12-18T04:09:24;43.73;;;18.53;;
17987;SDS011;9119;50.932;5.342;2022-12-18T04:11:51;49.43;;;19.17;;
17987;SDS011;9119;50.932;5.342;2022-12-18T04:14:17;50.60;;;18.53;;
17987;SDS011;9119;50.932;5.342;2022-12-18T04:16:42;51.67;;;18.90;;
17987;SDS011;9119;50.932;5.342;2022-12-18T04:19:08;55.43;;;18.87;;
17987;SDS011;9119;50.932;5.342;2022-12-18T04:21:34;58.27;;;19.53;;
17987;SDS011;9119;50.932;5.342;2022-12-18T04:23:59;53.00;;;19.00;;
17987;SDS011;9119;50.932;5.342;2022-12-18T04:26:25;50.73;;;19.13;;
17987;SDS011;9119;50.932;5.342;2022-12-18T04:28:50;61.90;;;19.60;;
17987;SDS011;9119;50.932;5.342;2022-12-18T04:31:16;55.50;;;20.27;;
17987;SDS011;9119;50.932;5.342;2022-12-18T04:33:42;54.77;;;20.17;;
17987;SDS011;9119;50.932;5.342;2022-12-18T04:36:07;61.93;;;20.20;;
17987;SDS011;9119;50.932;5.342;2022-12-18T04:38:33;50.90;;;19.93;;
17987;SDS011;9119;50.932;5.342;2022-12-18T04:40:59;53.47;;;18.93;;
17987;SDS011;9119;50.932;5.342;2022-12-18T04:43:24;60.67;;;21.00;;
17987;SDS011;9119;50.932;5.342;2022-12-18T04:45:50;52.70;;;19.63;;
17987;SDS011;9119;50.932;5.342;2022-12-18T04:48:15;52.30;;;18.40;;
17987;SDS011;9119;50.932;5.342;2022-12-18T04:50:41;59.10;;;19.97;;
17987;SDS011;9119;50.932;5.342;2022-12-18T04:53:07;54.80;;;18.80;;
17987;SDS011;9119;50.932;5.342;2022-12-18T04:55:32;48.67;;;19.23;;
17987;SDS011;9119;50.932;5.342;2022-12-18T04:57:58;55.37;;;18.70;;
17987;SDS011;9119;50.932;5.342;2022-12-18T05:00:24;54.43;;;20.13;;
17987;SDS011;9119;50.932;5.342;2022-12-18T05:02:49;51.80;;;19.50;;
17987;SDS011;9119;50.932;5.342;2022-12-18T05:05:15;53.20;;;19.07;;
17987;SDS011;9119;50.932;5.342;2022-12-18T05:07:41;56.40;;;19.00;;
17987;SDS011;9119;50.932;5.342;2022-12-18T05:10:07;51.83;;;18.50;;
17987;SDS011;9119;50.932;5.342;2022-12-18T05:12:33;51.00;;;18.87;;
17987;SDS011;9119;50.932;5.342;2022-12-18T05:14:58;43.73;;;17.90;;
17987;SDS011;9119;50.932;5.342;2022-12-18T05:17:24;56.23;;;18.67;;
17987;SDS011;9119;50.932;5.342;2022-12-18T05:19:50;51.07;;;17.70;;
17987;SDS011;9119;50.932;5.342;2022-12-18T05:22:15;44.90;;;17.47;;
17987;SDS011;9119;50.932;5.342;2022-12-18T05:24:41;48.37;;;18.07;;
17987;SDS011;9119;50.932;5.342;2022-12-18T05:27:07;53.70;;;18.03;;
17987;SDS011;9119;50.932;5.342;2022-12-18T05:29:32;51.80;;;18.20;;
17987;SDS011;9119;50.932;5.342;2022-12-18T05:31:58;54.07;;;18.83;;
17987;SDS011;9119;50.932;5.342;2022-12-18T05:34:23;51.20;;;18.67;;
17987;SDS011;9119;50.932;5.342;2022-12-18T05:36:49;48.57;;;18.40;;
17987;SDS011;9119;50.932;5.342;2022-12-18T05:39:15;49.00;;;18.10;;
17987;SDS011;9119;50.932;5.342;2022-12-18T05:41:40;48.17;;;18.40;;
17987;SDS011;9119;50.932;5.342;2022-12-18T05:44:06;48.20;;;17.87;;
17987;SDS011;9119;50.932;5.342;2022-12-18T05:46:32;47.33;;;17.53;;
17987;SDS011;9119;50.932;5.342;2022-12-18T05:49:00;45.33;;;17.07;;
17987;SDS011;9119;50.932;5.342;2022-12-18T05:51:27;46.73;;;17.50;;
17987;SDS011;9119;50.932;5.342;2022-12-18T05:53:52;45.63;;;17.43;;
17987;SDS011;9119;50.932;5.342;2022-12-18T05:56:22;47.63;;;17.00;;
17987;SDS011;9119;50.932;5.342;2022-12-18T05:58:50;41.53;;;16.53;;
17987;SDS011;9119;50.932;5.342;2022-12-18T06:01:19;49.10;;;17.67;;
17987;SDS011;9119;50.932;5.342;2022-12-18T06:03:46;47.27;;;17.63;;
17987;SDS011;9119;50.932;5.342;2022-12-18T06:06:19;43.47;;;15.53;;
17987;SDS011;9119;50.932;5.342;2022-12-18T06:08:47;44.80;;;16.27;;
17987;SDS011;9119;50.932;5.342;2022-12-18T06:11:15;39.57;;;15.37;;
17987;SDS011;9119;50.932;5.342;2022-12-18T06:13:42;44.53;;;15.53;;
17987;SDS011;9119;50.932;5.342;2022-12-18T06:16:08;40.27;;;15.70;;
17987;SDS011;9119;50.932;5.342;2022-12-18T06:18:34;41.43;;;16.03;;
17987;SDS011;9119;50.932;5.342;2022-12-18T06:21:00;42.57;;;14.57;;
17987;SDS011;9119;50.932;5.342;2022-12-18T06:23:25;38.63;;;13.97;;
17987;SDS011;9119;50.932;5.342;2022-12-18T06:25:51;38.37;;;14.50;;
17987;SDS011;9119;50.932;5.342;2022-12-18T06:28:17;37.83;;;13.50;;
17987;SDS011;9119;50.932;5.342;2022-12-18T06:30:43;37.23;;;14.37;;
17987;SDS011;9119;50.932;5.342;2022-12-18T06:33:10;57.17;;;16.07;;
17987;SDS011;9119;50.932;5.342;2022-12-18T06:35:35;38.77;;;14.37;;
17987;SDS011;9119;50.932;5.342;2022-12-18T06:38:01;35.23;;;13.83;;
17987;SDS011;9119;50.932;5.342;2022-12-18T06:40:27;37.13;;;14.63;;
17987;SDS011;9119;50.932;5.342;2022-12-18T06:42:53;40.73;;;15.27;;
17987;SDS011;9119;50.932;5.342;2022-12-18T06:45:19;38.63;;;13.67;;
17987;SDS011;9119;50.932;5.342;2022-12-18T06:47:45;38.77;;;14.80;;
17987;SDS011;9119;50.932;5.342;2022-12-18T06:50:11;37.90;;;13.50;;
17987;SDS011;9119;50.932;5.342;2022-12-18T06:52:37;35.70;;;13.23;;
17987;SDS011;9119;50.932;5.342;2022-12-18T06:55:05;38.97;;;14.83;;
17987;SDS011;9119;50.932;5.342;2022-12-18T06:57:32;33.00;;;13.47;;
17987;SDS011;9119;50.932;5.342;2022-12-18T06:59:58;32.40;;;12.63;;
17987;SDS011;9119;50.932;5.342;2022-12-18T07:02:24;39.33;;;14.20;;
17987;SDS011;9119;50.932;5.342;2022-12-18T07:04:50;35.13;;;13.37;;
17987;SDS011;9119;50.932;5.342;2022-12-18T07:07:15;38.20;;;14.03;;
17987;SDS011;9119;50.932;5.342;2022-12-18T07:09:41;39.30;;;13.80;;
17987;SDS011;9119;50.932;5.342;2022-12-18T07:12:07;55.50;;;16.37;;
17987;SDS011;9119;50.932;5.342;2022-12-18T07:14:33;38.63;;;13.17;;
17987;SDS011;9119;50.932;5.342;2022-12-18T07:16:59;39.23;;;14.47;;
17987;SDS011;9119;50.932;5.342;2022-12-18T07:19:24;38.00;;;12.33;;
17987;SDS011;9119;50.932;5.342;2022-12-18T07:21:51;35.00;;;14.03;;
17987;SDS011;9119;50.932;5.342;2022-12-18T07:24:17;35.73;;;13.23;;
17987;SDS011;9119;50.932;5.342;2022-12-18T07:26:45;41.43;;;13.87;;
17987;SDS011;9119;50.932;5.342;2022-12-18T07:29:11;36.63;;;13.80;;
17987;SDS011;9119;50.932;5.342;2022-12-18T07:31:37;37.53;;;14.27;;
17987;SDS011;9119;50.932;5.342;2022-12-18T07:34:03;42.13;;;14.00;;
17987;SDS011;9119;50.932;5.342;2022-12-18T07:36:28;38.37;;;13.57;;
17987;SDS011;9119;50.932;5.342;2022-12-18T07:38:54;32.70;;;13.00;;
17987;SDS011;9119;50.932;5.342;2022-12-18T07:41:20;31.37;;;13.00;;
17987;SDS011;9119;50.932;5.342;2022-12-18T07:43:46;39.43;;;14.67;;
17987;SDS011;9119;50.932;5.342;2022-12-18T07:46:12;38.97;;;13.43;;
17987;SDS011;9119;50.932;5.342;2022-12-18T07:48:42;41.07;;;12.70;;
17987;SDS011;9119;50.932;5.342;2022-12-18T07:51:09;30.57;;;12.83;;
17987;SDS011;9119;50.932;5.342;2022-12-18T07:53:35;32.57;;;12.57;;
17987;SDS011;9119;50.932;5.342;2022-12-18T07:56:02;36.73;;;12.50;;
17987;SDS011;9119;50.932;5.342;2022-12-18T07:58:30;37.10;;;13.53;;
17987;SDS011;9119;50.932;5.342;2022-12-18T08:01:05;32.93;;;11.70;;
17987;SDS011;9119;50.932;5.342;2022-12-18T08:03:31;33.73;;;13.50;;
17987;SDS011;9119;50.932;5.342;2022-12-18T08:05:58;32.10;;;12.60;;
17987;SDS011;9119;50.932;5.342;2022-12-18T08:08:25;32.90;;;11.73;;
17987;SDS011;9119;50.932;5.342;2022-12-18T08:10:50;29.50;;;12.63;;
17987;SDS011;9119;50.932;5.342;2022-12-18T08:13:16;28.53;;;11.00;;
17987;SDS011;9119;50.932;5.342;2022-12-18T08:15:42;28.77;;;11.43;;
17987;SDS011;9119;50.932;5.342;2022-12-18T08:18:07;27.47;;;11.20;;
17987;SDS011;9119;50.932;5.342;2022-12-18T08:20:33;27.47;;;10.93;;
17987;SDS011;9119;50.932;5.342;2022-12-18T08:23:01;29.57;;;11.43;;
17987;SDS011;9119;50.932;5.342;2022-12-18T08:25:27;31.77;;;12.63;;
17987;SDS011;9119;50.932;5.342;2022-12-18T08:27:52;34.50;;;12.53;;
17987;SDS011;9119;50.932;5.342;2022-12-18T08:30:18;31.73;;;12.37;;
17987;SDS011;9119;50.932;5.342;2022-12-18T08:32:44;32.73;;;12.43;;
17987;SDS011;9119;50.932;5.342;2022-12-18T08:35:10;33.47;;;12.57;;
17987;SDS011;9119;50.932;5.342;2022-12-18T08:37:37;32.63;;;12.97;;
17987;SDS011;9119;50.932;5.342;2022-12-18T08:40:03;27.40;;;11.87;;
17987;SDS011;9119;50.932;5.342;2022-12-18T08:42:29;32.70;;;11.43;;
17987;SDS011;9119;50.932;5.342;2022-12-18T08:45:13;31.80;;;11.87;;
17987;SDS011;9119;50.932;5.342;2022-12-18T08:47:39;29.27;;;11.93;;
17987;SDS011;9119;50.932;5.342;2022-12-18T08:50:05;34.93;;;13.13;;
17987;SDS011;9119;50.932;5.342;2022-12-18T08:52:31;30.00;;;10.90;;
17987;SDS011;9119;50.932;5.342;2022-12-18T08:54:57;27.07;;;11.30;;
17987;SDS011;9119;50.932;5.342;2022-12-18T08:57:23;28.27;;;11.77;;
17987;SDS011;9119;50.932;5.342;2022-12-18T08:59:49;25.73;;;12.10;;
17987;SDS011;9119;50.932;5.342;2022-12-18T09:02:14;34.80;;;11.97;;
17987;SDS011;9119;50.932;5.342;2022-12-18T09:04:40;27.80;;;10.77;;
17987;SDS011;9119;50.932;5.342;2022-12-18T09:07:06;33.27;;;12.03;;
17987;SDS011;9119;50.932;5.342;2022-12-18T09:09:32;27.73;;;11.60;;
17987;SDS011;9119;50.932;5.342;2022-12-18T09:11:57;25.47;;;11.57;;
17987;SDS011;9119;50.932;5.342;2022-12-18T09:14:23;32.47;;;12.10;;
17987;SDS011;9119;50.932;5.342;2022-12-18T09:16:49;31.70;;;12.23;;
17987;SDS011;9119;50.932;5.342;2022-12-18T09:19:14;33.83;;;12.63;;
17987;SDS011;9119;50.932;5.342;2022-12-18T09:21:40;30.63;;;11.53;;
17987;SDS011;9119;50.932;5.342;2022-12-18T09:24:06;35.97;;;12.80;;
17987;SDS011;9119;50.932;5.342;2022-12-18T09:26:36;33.07;;;12.90;;
17987;SDS011;9119;50.932;5.342;2022-12-18T09:29:02;31.50;;;13.27;;
17987;SDS011;9119;50.932;5.342;2022-12-18T09:31:32;29.30;;;11.30;;
17987;SDS011;9119;50.932;5.342;2022-12-18T09:33:58;27.20;;;11.87;;
17987;SDS011;9119;50.932;5.342;2022-12-18T09:36:24;28.90;;;11.77;;
17987;SDS011;9119;50.932;5.342;2022-12-18T09:38:50;25.90;;;11.27;;
17987;SDS011;9119;50.932;5.342;2022-12-18T09:44:11;32.43;;;11.63;;
17987;SDS011;9119;50.932;5.342;2022-12-18T09:46:40;32.23;;;11.27;;
17987;SDS011;9119;50.932;5.342;2022-12-18T09:49:12;27.57;;;10.53;;
17987;SDS011;9119;50.932;5.342;2022-12-18T09:54:20;31.73;;;12.57;;
17987;SDS011;9119;50.932;5.342;2022-12-18T09:56:50;32.60;;;11.97;;
17987;SDS011;9119;50.932;5.342;2022-12-18T09:59:33;24.93;;;11.40;;
17987;SDS011;9119;50.932;5.342;2022-12-18T10:02:14;28.47;;;11.23;;
17987;SDS011;9119;50.932;5.342;2022-12-18T10:04:48;29.87;;;12.73;;
17987;SDS011;9119;50.932;5.342;2022-12-18T10:07:37;30.20;;;13.20;;
17987;SDS011;9119;50.932;5.342;2022-12-18T10:10:18;35.80;;;13.43;;
17987;SDS011;9119;50.932;5.342;2022-12-18T10:12:57;29.43;;;12.83;;
17987;SDS011;9119;50.932;5.342;2022-12-18T10:15:45;34.13;;;13.60;;
17987;SDS011;9119;50.932;5.342;2022-12-18T10:18:29;33.53;;;13.57;;
17987;SDS011;9119;50.932;5.342;2022-12-18T10:21:23;29.13;;;12.73;;
17987;SDS011;9119;50.932;5.342;2022-12-18T10:24:21;28.70;;;12.93;;
17987;SDS011;9119;50.932;5.342;2022-12-18T10:26:59;26.37;;;12.57;;
17987;SDS011;9119;50.932;5.342;2022-12-18T10:29:38;38.33;;;15.70;;
17987;SDS011;9119;50.932;5.342;2022-12-18T10:32:04;29.70;;;12.27;;
17987;SDS011;9119;50.932;5.342;2022-12-18T10:34:30;31.47;;;12.67;;
17987;SDS011;9119;50.932;5.342;2022-12-18T10:36:56;30.60;;;12.07;;
17987;SDS011;9119;50.932;5.342;2022-12-18T10:39:23;31.67;;;12.53;;
17987;SDS011;9119;50.932;5.342;2022-12-18T10:41:51;30.50;;;14.13;;
17987;SDS011;9119;50.932;5.342;2022-12-18T10:44:18;177.50;;;22.27;;
17987;SDS011;9119;50.932;5.342;2022-12-18T10:46:46;63.60;;;17.50;;
17987;SDS011;9119;50.932;5.342;2022-12-18T10:49:22;40.57;;;13.83;;
17987;SDS011;9119;50.932;5.342;2022-12-18T10:52:15;40.00;;;14.40;;
17987;SDS011;9119;50.932;5.342;2022-12-18T10:54:53;40.50;;;14.37;;
17987;SDS011;9119;50.932;5.342;2022-12-18T11:00:20;40.10;;;16.10;;
17987;SDS011;9119;50.932;5.342;2022-12-18T11:02:46;38.13;;;14.23;;
17987;SDS011;9119;50.932;5.342;2022-12-18T11:08:11;30.30;;;13.50;;
17987;SDS011;9119;50.932;5.342;2022-12-18T11:10:47;28.17;;;12.67;;
17987;SDS011;9119;50.932;5.342;2022-12-18T11:13:23;29.60;;;12.50;;
17987;SDS011;9119;50.932;5.342;2022-12-18T11:15:51;29.90;;;13.20;;
17987;SDS011;9119;50.932;5.342;2022-12-18T11:18:28;31.13;;;12.80;;
17987;SDS011;9119;50.932;5.342;2022-12-18T11:21:08;32.50;;;13.07;;
17987;SDS011;9119;50.932;5.342;2022-12-18T11:23:36;32.97;;;13.50;;
17987;SDS011;9119;50.932;5.342;2022-12-18T11:26:10;35.40;;;14.97;;
17987;SDS011;9119;50.932;5.342;2022-12-18T11:28:38;33.90;;;13.03;;
17987;SDS011;9119;50.932;5.342;2022-12-18T11:31:12;30.53;;;13.17;;
17987;SDS011;9119;50.932;5.342;2022-12-18T11:36:42;31.03;;;13.13;;
17987;SDS011;9119;50.932;5.342;2022-12-18T11:39:33;32.20;;;13.73;;
17987;SDS011;9119;50.932;5.342;2022-12-18T11:44:51;33.70;;;13.43;;
17987;SDS011;9119;50.932;5.342;2022-12-18T11:47:40;35.33;;;13.30;;
17987;SDS011;9119;50.932;5.342;2022-12-18T11:50:21;34.17;;;15.00;;
17987;SDS011;9119;50.932;5.342;2022-12-18T11:52:50;33.37;;;13.40;;
17987;SDS011;9119;50.932;5.342;2022-12-18T11:55:19;35.53;;;13.97;;
17987;SDS011;9119;50.932;5.342;2022-12-18T11:57:56;32.10;;;13.33;;
17987;SDS011;9119;50.932;5.342;2022-12-18T12:00:36;32.03;;;13.00;;
17987;SDS011;9119;50.932;5.342;2022-12-18T12:03:20;28.50;;;12.83;;
17987;SDS011;9119;50.932;5.342;2022-12-18T12:08:58;37.27;;;14.33;;
17987;SDS011;9119;50.932;5.342;2022-12-18T12:11:32;30.50;;;13.03;;
17987;SDS011;9119;50.932;5.342;2022-12-18T12:16:57;34.90;;;13.77;;
17987;SDS011;9119;50.932;5.342;2022-12-18T12:19:53;32.97;;;13.60;;
17987;SDS011;9119;50.932;5.342;2022-12-18T12:22:43;34.47;;;13.50;;
17987;SDS011;9119;50.932;5.342;2022-12-18T12:25:41;28.30;;;12.60;;
17987;SDS011;9119;50.932;5.342;2022-12-18T12:31:13;33.87;;;14.20;;
17987;SDS011;9119;50.932;5.342;2022-12-18T12:39:37;30.47;;;13.80;;
17987;SDS011;9119;50.932;5.342;2022-12-18T12:42:08;33.67;;;13.57;;
17987;SDS011;9119;50.932;5.342;2022-12-18T12:45:05;34.63;;;14.73;;
17987;SDS011;9119;50.932;5.342;2022-12-18T12:47:40;34.10;;;13.47;;
17987;SDS011;9119;50.932;5.342;2022-12-18T12:50:13;39.30;;;14.23;;
17987;SDS011;9119;50.932;5.342;2022-12-18T12:52:45;37.30;;;15.03;;
17987;SDS011;9119;50.932;5.342;2022-12-18T12:55:34;31.23;;;14.77;;
17987;SDS011;9119;50.932;5.342;2022-12-18T12:58:17;33.83;;;15.30;;
17987;SDS011;9119;50.932;5.342;2022-12-18T13:03:40;34.00;;;13.93;;
17987;SDS011;9119;50.932;5.342;2022-12-18T13:06:09;34.20;;;14.30;;
17987;SDS011;9119;50.932;5.342;2022-12-18T13:19:39;36.73;;;14.23;;
17987;SDS011;9119;50.932;5.342;2022-12-18T13:22:12;36.10;;;14.30;;
17987;SDS011;9119;50.932;5.342;2022-12-18T13:24:48;37.73;;;14.83;;
17987;SDS011;9119;50.932;5.342;2022-12-18T13:30:27;41.13;;;16.20;;
17987;SDS011;9119;50.932;5.342;2022-12-18T13:33:56;33.47;;;14.87;;
17987;SDS011;9119;50.932;5.342;2022-12-18T13:36:09;37.47;;;16.07;;
17987;SDS011;9119;50.932;5.342;2022-12-18T13:38:46;43.93;;;16.30;;
17987;SDS011;9119;50.932;5.342;2022-12-18T13:43:52;36.63;;;15.33;;
17987;SDS011;9119;50.932;5.342;2022-12-18T13:46:43;29.93;;;13.83;;
17987;SDS011;9119;50.932;5.342;2022-12-18T13:51:39;41.23;;;15.87;;
17987;SDS011;9119;50.932;5.342;2022-12-18T13:54:16;39.13;;;14.93;;
17987;SDS011;9119;50.932;5.342;2022-12-18T13:56:45;34.63;;;14.03;;
17987;SDS011;9119;50.932;5.342;2022-12-18T13:59:19;36.47;;;15.77;;
17987;SDS011;9119;50.932;5.342;2022-12-18T14:01:54;39.70;;;16.53;;
17987;SDS011;9119;50.932;5.342;2022-12-18T14:04:25;39.10;;;15.67;;
17987;SDS011;9119;50.932;5.342;2022-12-18T14:07:07;36.93;;;15.67;;
17987;SDS011;9119;50.932;5.342;2022-12-18T14:09:49;36.33;;;15.20;;
17987;SDS011;9119;50.932;5.342;2022-12-18T14:17:57;40.17;;;15.73;;
17987;SDS011;9119;50.932;5.342;2022-12-18T14:20:41;33.50;;;15.17;;
17987;SDS011;9119;50.932;5.342;2022-12-18T14:23:25;32.17;;;14.47;;
17987;SDS011;9119;50.932;5.342;2022-12-18T14:25:52;40.40;;;16.17;;
17987;SDS011;9119;50.932;5.342;2022-12-18T14:28:17;40.67;;;17.67;;
17987;SDS011;9119;50.932;5.342;2022-12-18T14:30:44;42.43;;;16.40;;
17987;SDS011;9119;50.932;5.342;2022-12-18T14:33:12;38.10;;;16.30;;
17987;SDS011;9119;50.932;5.342;2022-12-18T14:36:05;38.93;;;17.13;;
17987;SDS011;9119;50.932;5.342;2022-12-18T14:38:38;44.73;;;17.17;;
17987;SDS011;9119;50.932;5.342;2022-12-18T14:41:05;40.87;;;16.83;;
17987;SDS011;9119;50.932;5.342;2022-12-18T14:43:34;40.53;;;16.87;;
17987;SDS011;9119;50.932;5.342;2022-12-18T14:46:02;43.70;;;17.83;;
17987;SDS011;9119;50.932;5.342;2022-12-18T14:48:37;44.43;;;17.20;;
17987;SDS011;9119;50.932;5.342;2022-12-18T14:51:18;38.50;;;16.80;;
17987;SDS011;9119;50.932;5.342;2022-12-18T14:53:58;40.77;;;16.43;;
17987;SDS011;9119;50.932;5.342;2022-12-18T14:59:29;41.77;;;15.63;;
17987;SDS011;9119;50.932;5.342;2022-12-18T15:04:40;37.37;;;15.83;;
17987;SDS011;9119;50.932;5.342;2022-12-18T15:09:43;37.63;;;16.17;;
17987;SDS011;9119;50.932;5.342;2022-12-18T15:12:37;41.57;;;16.10;;
17987;SDS011;9119;50.932;5.342;2022-12-18T15:26:11;42.53;;;16.57;;
17987;SDS011;9119;50.932;5.342;2022-12-18T15:33:59;36.83;;;15.63;;
17987;SDS011;9119;50.932;5.342;2022-12-18T15:36:24;41.97;;;17.37;;
17987;SDS011;9119;50.932;5.342;2022-12-18T15:38:50;37.73;;;16.87;;
17987;SDS011;9119;50.932;5.342;2022-12-18T15:41:18;43.83;;;16.53;;
17987;SDS011;9119;50.932;5.342;2022-12-18T15:43:46;42.37;;;17.40;;
17987;SDS011;9119;50.932;5.342;2022-12-18T15:46:20;39.27;;;17.47;;
17987;SDS011;9119;50.932;5.342;2022-12-18T15:48:48;42.30;;;16.77;;
17987;SDS011;9119;50.932;5.342;2022-12-18T15:51:23;40.97;;;17.80;;
17987;SDS011;9119;50.932;5.342;2022-12-18T15:53:54;52.03;;;22.53;;
17987;SDS011;9119;50.932;5.342;2022-12-18T15:56:22;50.13;;;21.43;;
17987;SDS011;9119;50.932;5.342;2022-12-18T15:59:13;57.70;;;23.37;;
17987;SDS011;9119;50.932;5.342;2022-12-18T16:01:40;42.87;;;18.53;;
17987;SDS011;9119;50.932;5.342;2022-12-18T16:04:08;44.40;;;18.00;;
17987;SDS011;9119;50.932;5.342;2022-12-18T16:06:36;48.47;;;19.07;;
17987;SDS011;9119;50.932;5.342;2022-12-18T16:09:02;43.77;;;17.43;;
17987;SDS011;9119;50.932;5.342;2022-12-18T16:11:28;47.70;;;19.43;;
17987;SDS011;9119;50.932;5.342;2022-12-18T16:14:20;43.20;;;18.03;;
17987;SDS011;9119;50.932;5.342;2022-12-18T16:16:49;43.23;;;17.30;;
17987;SDS011;9119;50.932;5.342;2022-12-18T16:19:16;50.60;;;21.63;;
17987;SDS011;9119;50.932;5.342;2022-12-18T16:21:43;45.57;;;18.90;;
17987;SDS011;9119;50.932;5.342;2022-12-18T16:24:14;45.47;;;17.87;;
17987;SDS011;9119;50.932;5.342;2022-12-18T16:26:41;44.57;;;17.47;;
17987;SDS011;9119;50.932;5.342;2022-12-18T16:29:07;43.57;;;18.00;;
17987;SDS011;9119;50.932;5.342;2022-12-18T16:31:33;36.53;;;15.80;;
17987;SDS011;9119;50.932;5.342;2022-12-18T16:36:53;36.50;;;16.00;;
17987;SDS011;9119;50.932;5.342;2022-12-18T16:39:19;84.63;;;28.87;;
17987;SDS011;9119;50.932;5.342;2022-12-18T16:41:45;56.83;;;21.40;;
17987;SDS011;9119;50.932;5.342;2022-12-18T16:44:12;45.23;;;18.67;;
17987;SDS011;9119;50.932;5.342;2022-12-18T16:46:39;46.40;;;20.87;;